createdAt,value
2023-07-04T00:01:33.663Z,30.30
2023-07-04T00:04:06.315Z,32.75
2023-07-04T00:06:38.062Z,29.88
2023-07-04T00:09:06.896Z,31.00
2023-07-04T00:11:35.463Z,31.00
2023-07-04T00:14:04.780Z,30.92
2023-07-04T00:16:33.502Z,31.63
2023-07-04T00:19:05.177Z,30.63
2023-07-04T00:21:34.243Z,30.25
2023-07-04T00:24:03.411Z,30.25
2023-07-04T00:26:32.113Z,24.73
2023-07-04T00:29:00.755Z,22.05
2023-07-04T00:31:30.761Z,22.33
2023-07-04T00:33:59.306Z,24.52
2023-07-04T00:36:30.646Z,26.08
2023-07-04T00:38:59.310Z,27.08
2023-07-04T00:41:29.795Z,26.38
2023-07-04T00:44:00.982Z,27.08
2023-07-04T00:46:40.595Z,28.90
2023-07-04T00:49:19.646Z,29.63
2023-07-04T00:52:01.710Z,29.48
2023-07-04T00:54:35.993Z,29.58
2023-07-04T00:57:08.215Z,29.25
2023-07-04T00:59:44.503Z,29.55
2023-07-04T01:02:13.913Z,31.20
2023-07-04T01:04:43.014Z,30.90
2023-07-04T01:07:22.570Z,30.25
2023-07-04T01:09:56.874Z,30.38
2023-07-04T01:12:31.174Z,29.85
2023-07-04T01:15:01.559Z,30.33
2023-07-04T01:17:30.514Z,30.88
2023-07-04T01:19:59.853Z,31.90
2023-07-04T01:22:34.925Z,30.98
2023-07-04T01:25:12.270Z,31.08
2023-07-04T01:27:44.485Z,32.17
2023-07-04T01:30:15.011Z,30.85
2023-07-04T01:32:44.873Z,32.17
2023-07-04T01:35:15.330Z,31.92
2023-07-04T01:37:44.195Z,32.75
2023-07-04T01:40:14.252Z,32.72
2023-07-04T01:42:44.086Z,33.20
2023-07-04T01:45:13.602Z,33.03
2023-07-04T01:47:42.692Z,33.03
2023-07-04T01:50:13.769Z,33.05
2023-07-04T01:52:43.324Z,32.60
2023-07-04T01:55:13.557Z,31.83
2023-07-04T01:57:44.430Z,33.08
2023-07-04T02:00:14.920Z,30.90
2023-07-04T02:02:44.557Z,30.73
2023-07-04T02:05:13.900Z,31.27
2023-07-04T02:07:42.582Z,30.98
2023-07-04T02:10:11.752Z,30.45
2023-07-04T02:12:40.198Z,30.30
2023-07-04T02:15:11.042Z,32.13
2023-07-04T02:17:39.943Z,34.70
2023-07-04T02:20:09.770Z,35.33
2023-07-04T02:22:38.588Z,36.22
2023-07-04T02:25:07.798Z,36.20
2023-07-04T02:27:36.553Z,37.38
2023-07-04T02:30:05.348Z,36.28
2023-07-04T02:32:35.452Z,36.70
2023-07-04T02:35:04.172Z,38.38
2023-07-04T02:37:32.741Z,36.60
2023-07-04T02:40:02.728Z,34.63
2023-07-04T02:42:31.402Z,35.58
2023-07-04T02:45:00.421Z,35.55
2023-07-04T02:47:29.271Z,33.97
2023-07-04T02:49:59.581Z,32.00
2023-07-04T02:52:28.331Z,30.83
2023-07-04T02:54:56.779Z,28.00
2023-07-04T02:57:25.905Z,28.20
2023-07-04T02:59:54.756Z,26.08
2023-07-04T03:02:24.717Z,25.52
2023-07-04T03:04:53.743Z,26.63
2023-07-04T03:07:23.587Z,25.27
2023-07-04T03:09:52.282Z,25.38
2023-07-04T03:12:20.888Z,24.92
2023-07-04T03:14:49.533Z,27.25
2023-07-04T03:17:18.086Z,26.38
2023-07-04T03:19:46.698Z,25.95
2023-07-04T03:22:15.051Z,26.33
2023-07-04T03:24:45.045Z,26.83
2023-07-04T03:27:13.675Z,24.50
2023-07-04T03:29:42.439Z,26.00
2023-07-04T03:32:11.120Z,27.40
2023-07-04T03:34:39.626Z,27.73
2023-07-04T03:37:08.219Z,29.83
2023-07-04T03:39:36.955Z,31.02
2023-07-04T03:42:08.101Z,31.02
2023-07-04T03:44:40.876Z,32.55
2023-07-04T03:47:09.721Z,32.45
2023-07-04T03:49:38.140Z,31.33
2023-07-04T03:54:56.920Z,32.92
2023-07-04T03:57:26.630Z,33.05
2023-07-04T03:59:55.029Z,33.47
2023-07-04T04:02:23.734Z,32.60
2023-07-04T04:04:52.618Z,32.42
2023-07-04T04:07:21.304Z,31.95
2023-07-04T04:09:50.017Z,31.90
2023-07-04T04:12:18.726Z,35.65
2023-07-04T04:14:48.475Z,34.70
2023-07-04T04:17:16.964Z,37.25
2023-07-04T04:19:45.669Z,37.58
2023-07-04T04:22:14.360Z,40.88
2023-07-04T04:24:42.966Z,40.83
2023-07-04T04:27:14.039Z,40.70
2023-07-04T04:29:42.726Z,39.55
2023-07-04T04:32:12.615Z,38.83
2023-07-04T04:34:41.693Z,40.00
2023-07-04T04:37:10.293Z,36.47
2023-07-04T04:39:39.811Z,35.15
2023-07-04T04:42:15.605Z,33.38
2023-07-04T04:44:44.577Z,33.50
2023-07-04T04:47:14.602Z,28.95
2023-07-04T04:49:43.162Z,29.13
2023-07-04T04:52:13.535Z,29.23
2023-07-04T04:54:42.572Z,31.60
2023-07-04T04:57:11.397Z,30.45
2023-07-04T04:59:39.920Z,30.67
2023-07-04T05:02:10.295Z,31.23
2023-07-04T05:04:40.122Z,34.05
2023-07-04T05:07:09.007Z,38.03
2023-07-04T05:09:37.602Z,38.35
2023-07-04T05:12:06.523Z,38.38
2023-07-04T05:14:35.072Z,37.38
2023-07-04T05:17:04.177Z,37.33
2023-07-04T05:19:32.972Z,38.95
2023-07-04T05:22:03.109Z,40.33
2023-07-04T05:24:33.110Z,40.58
2023-07-04T05:27:01.873Z,41.95
2023-07-04T05:29:30.432Z,39.47
2023-07-04T05:31:59.007Z,41.33
2023-07-04T05:34:27.735Z,41.58
2023-07-04T05:36:56.807Z,41.13
2023-07-04T05:39:27.002Z,39.83
2023-07-04T05:41:55.561Z,33.92
2023-07-04T05:44:24.196Z,31.08
2023-07-04T05:46:54.888Z,31.23
2023-07-04T05:49:23.655Z,32.47
2023-07-04T05:51:52.360Z,30.77
2023-07-04T05:54:20.817Z,33.97
2023-07-04T05:56:54.229Z,32.17
2023-07-04T05:59:22.829Z,30.23
2023-07-04T06:01:52.634Z,30.92
2023-07-04T06:04:21.687Z,31.45
2023-07-04T06:06:53.828Z,35.05
2023-07-04T06:09:24.094Z,34.45
2023-07-04T06:11:54.590Z,34.97
2023-07-04T06:14:28.978Z,33.83
2023-07-04T06:16:58.439Z,36.13
2023-07-04T06:19:40.953Z,37.45
2023-07-04T06:22:09.474Z,38.00
2023-07-04T06:24:38.401Z,37.90
2023-07-04T06:27:09.305Z,40.08
2023-07-04T06:29:39.792Z,39.42
2023-07-04T06:32:09.259Z,39.30
2023-07-04T06:34:37.807Z,37.92
2023-07-04T06:37:06.771Z,38.53
2023-07-04T06:39:35.415Z,37.90
2023-07-04T06:42:08.871Z,37.60
2023-07-04T06:44:37.429Z,36.83
2023-07-04T06:47:06.182Z,35.65
2023-07-04T06:49:34.911Z,34.25
2023-07-04T06:52:03.781Z,36.17
2023-07-04T06:57:05.834Z,34.47
2023-07-04T06:59:35.640Z,38.28
2023-07-04T07:02:04.451Z,37.05
2023-07-04T07:04:33.175Z,37.08
2023-07-04T07:07:02.016Z,39.20
2023-07-04T07:09:31.769Z,40.47
2023-07-04T07:12:00.611Z,39.92
2023-07-04T07:14:30.618Z,39.67
2023-07-04T07:17:01.804Z,38.40
2023-07-04T07:19:31.348Z,35.83
2023-07-04T07:22:01.459Z,32.38
2023-07-04T07:24:30.678Z,30.27
2023-07-04T07:26:59.691Z,30.08
2023-07-04T07:29:28.628Z,31.65
2023-07-04T07:31:57.193Z,29.90
2023-07-04T07:34:27.022Z,29.38
2023-07-04T07:36:55.646Z,27.13
2023-07-04T07:39:24.206Z,25.70
2023-07-04T07:41:52.701Z,26.10
2023-07-04T07:44:21.342Z,20.70
2023-07-04T07:46:53.239Z,22.50
2023-07-04T07:49:22.057Z,19.92
2023-07-04T07:51:51.806Z,17.73
2023-07-04T07:54:20.533Z,17.17
2023-07-04T07:56:49.811Z,26.58
2023-07-04T07:59:19.991Z,24.25
2023-07-04T08:01:49.081Z,17.48
2023-07-04T08:04:17.769Z,18.88
2023-07-04T08:06:48.510Z,24.15
2023-07-04T08:09:21.452Z,17.05
2023-07-04T08:11:50.979Z,20.52
2023-07-04T08:14:20.414Z,20.33
2023-07-04T08:16:50.609Z,22.02
2023-07-04T08:19:21.088Z,20.40
2023-07-04T08:21:50.029Z,24.38
2023-07-04T08:24:22.630Z,28.17
2023-07-04T08:26:55.672Z,22.23
2023-07-04T08:29:24.544Z,17.98
2023-07-04T08:31:53.100Z,25.17
2023-07-04T08:34:21.739Z,17.02
2023-07-04T08:36:50.446Z,16.77
2023-07-04T08:39:20.194Z,14.02
2023-07-04T08:41:54.544Z,11.98
2023-07-04T08:44:24.880Z,12.20
2023-07-04T08:46:56.627Z,11.30
2023-07-04T08:49:35.648Z,12.82
2023-07-04T08:52:08.915Z,9.38
2023-07-04T08:54:39.460Z,10.02
2023-07-04T08:57:19.649Z,6.93
2023-07-04T08:59:53.775Z,7.75
2023-07-04T09:02:46.744Z,10.02
2023-07-04T09:05:20.038Z,10.18
2023-07-04T09:07:55.043Z,9.30
2023-07-04T09:10:34.540Z,10.68
2023-07-04T09:13:07.861Z,9.48
2023-07-04T09:15:39.049Z,7.20
2023-07-04T09:18:23.167Z,11.73
2023-07-04T09:20:58.394Z,9.63
2023-07-04T09:23:27.105Z,9.10
2023-07-04T09:25:59.037Z,10.68
2023-07-04T09:28:32.102Z,7.55
2023-07-04T09:31:03.333Z,9.45
2023-07-04T09:33:32.863Z,6.13
2023-07-04T09:36:03.042Z,5.57
2023-07-04T09:38:52.860Z,5.93
2023-07-04T09:41:22.801Z,10.52
2023-07-04T09:43:51.824Z,6.93
2023-07-04T09:46:25.386Z,6.45
2023-07-04T09:48:54.211Z,8.07
2023-07-04T09:51:26.940Z,12.10
2023-07-04T09:54:14.614Z,8.32
2023-07-04T09:56:46.753Z,7.60
2023-07-04T09:59:18.151Z,9.27
2023-07-04T10:01:48.857Z,5.85
2023-07-04T10:04:35.499Z,6.70
2023-07-04T10:07:05.542Z,13.20
2023-07-04T10:09:35.062Z,7.95
2023-07-04T10:12:12.973Z,7.10
2023-07-04T10:14:48.902Z,9.38
2023-07-04T10:17:21.296Z,9.43
2023-07-04T10:19:50.935Z,9.05
2023-07-04T10:22:26.888Z,10.88
2023-07-04T10:24:57.099Z,11.93
2023-07-04T10:27:32.984Z,8.48
2023-07-04T10:30:05.177Z,6.03
2023-07-04T10:32:41.458Z,5.30
2023-07-04T10:35:15.025Z,8.25
2023-07-04T10:37:45.485Z,8.45
2023-07-04T10:40:17.252Z,7.97
2023-07-04T10:42:54.971Z,9.43
2023-07-04T10:45:25.882Z,7.22
2023-07-04T10:47:56.636Z,5.45
2023-07-04T10:50:28.879Z,6.40
2023-07-04T10:52:57.395Z,6.60
2023-07-04T10:55:35.130Z,4.10
2023-07-04T10:58:11.530Z,7.68
2023-07-04T11:00:43.725Z,4.40
2023-07-04T11:03:18.266Z,7.07
2023-07-04T11:05:50.719Z,7.22
2023-07-04T11:08:22.364Z,8.63
2023-07-04T11:10:55.108Z,7.50
2023-07-04T11:13:26.635Z,7.30
2023-07-04T11:15:58.217Z,5.50
2023-07-04T11:18:35.452Z,7.00
2023-07-04T11:21:12.214Z,5.75
2023-07-04T11:23:50.316Z,9.27
2023-07-04T11:26:19.228Z,5.93
2023-07-04T11:28:53.931Z,4.28
2023-07-04T11:31:26.609Z,3.85
2023-07-04T11:34:13.064Z,7.28
2023-07-04T11:36:51.400Z,6.28
2023-07-04T11:39:32.891Z,7.10
2023-07-04T11:42:13.074Z,5.45
2023-07-04T11:44:52.496Z,3.83
2023-07-04T11:47:42.419Z,6.50
2023-07-04T11:51:12.520Z,4.50
2023-07-04T11:53:47.030Z,6.15
2023-07-04T11:56:43.912Z,7.95
2023-07-04T11:59:38.689Z,3.97
2023-07-04T12:02:29.245Z,6.03
2023-07-04T12:04:59.042Z,5.22
2023-07-04T12:07:44.303Z,6.07
2023-07-04T12:10:18.479Z,5.07
2023-07-04T12:12:48.273Z,6.95
2023-07-04T12:15:24.095Z,6.65
2023-07-04T12:17:56.077Z,4.28
2023-07-04T12:20:24.820Z,8.15
2023-07-04T12:22:55.354Z,4.68
2023-07-04T12:25:26.089Z,6.30
2023-07-04T12:27:57.536Z,7.18
2023-07-04T12:30:38.861Z,5.53
2023-07-04T12:33:21.941Z,7.57
2023-07-04T12:35:56.334Z,6.30
2023-07-04T12:38:27.511Z,7.53
2023-07-04T12:40:59.111Z,6.25
2023-07-04T12:51:38.327Z,6.80
2023-07-04T12:54:22.461Z,3.45
2023-07-04T12:56:51.414Z,7.72
2023-07-04T12:59:38.985Z,5.57
2023-07-04T13:02:20.587Z,5.85
2023-07-04T13:04:50.992Z,5.72
2023-07-04T13:07:37.118Z,5.63
2023-07-04T13:10:05.945Z,4.32
2023-07-04T13:12:36.906Z,4.13
2023-07-04T13:15:20.222Z,5.57
2023-07-04T13:18:06.900Z,6.05
2023-07-04T13:20:40.223Z,4.57
2023-07-04T13:25:58.175Z,7.25
2023-07-04T13:34:20.469Z,5.22
2023-07-04T13:36:53.957Z,4.45
2023-07-04T13:39:50.860Z,5.40
2023-07-04T13:42:18.873Z,3.22
2023-07-04T13:47:20.279Z,3.10
2023-07-04T13:49:49.160Z,6.00
2023-07-04T13:52:20.667Z,6.93
2023-07-04T13:54:49.415Z,8.00
2023-07-04T13:57:17.974Z,3.55
2023-07-04T13:59:50.208Z,5.18
2023-07-04T14:07:26.607Z,3.67
2023-07-04T14:09:55.433Z,4.45
2023-07-04T14:12:29.825Z,4.97
2023-07-04T14:17:33.374Z,3.90
2023-07-04T14:20:18.880Z,2.92
2023-07-04T14:22:50.100Z,4.97
2023-07-04T14:25:18.776Z,4.82
2023-07-04T14:27:47.221Z,4.35
2023-07-04T14:30:16.334Z,4.15
2023-07-04T14:32:45.071Z,5.68
2023-07-04T14:35:14.161Z,5.55
2023-07-04T14:37:42.621Z,3.70
2023-07-04T14:42:49.240Z,6.03
2023-07-04T14:45:18.153Z,5.03
2023-07-04T14:47:46.909Z,5.22
2023-07-04T14:50:15.947Z,5.82
2023-07-04T14:52:44.556Z,4.10
2023-07-04T14:55:14.455Z,4.85
2023-07-04T14:57:45.957Z,5.60
2023-07-04T15:00:17.463Z,5.35
2023-07-04T15:02:47.656Z,6.00
2023-07-04T15:05:16.542Z,6.13
2023-07-04T15:07:45.432Z,5.55
2023-07-04T15:10:16.634Z,5.95
2023-07-04T15:12:46.083Z,5.65
2023-07-04T15:15:15.080Z,6.30
2023-07-04T15:17:43.951Z,9.52
2023-07-04T15:20:15.085Z,5.72
2023-07-04T15:22:43.591Z,6.30
2023-07-04T15:25:12.559Z,7.75
2023-07-04T15:27:43.063Z,11.82
2023-07-04T15:30:12.896Z,8.07
2023-07-04T15:32:42.199Z,8.32
2023-07-04T15:37:40.379Z,9.05
2023-07-04T15:40:10.050Z,8.57
2023-07-04T15:42:38.577Z,7.80
2023-07-04T15:45:09.165Z,7.03
2023-07-04T15:47:37.888Z,7.25
2023-07-04T15:50:06.821Z,7.63
2023-07-04T15:52:35.620Z,8.40
2023-07-04T15:55:04.165Z,7.20
2023-07-04T15:57:32.775Z,5.97
2023-07-04T16:00:01.650Z,4.95
2023-07-04T16:02:31.379Z,8.50
2023-07-04T16:04:59.973Z,7.15
2023-07-04T16:07:30.633Z,8.75
2023-07-04T16:09:59.434Z,6.60
2023-07-04T16:12:28.216Z,7.47
2023-07-04T16:14:56.898Z,8.55
2023-07-04T16:17:25.581Z,7.32
2023-07-04T16:19:55.387Z,6.65
2023-07-04T16:22:24.275Z,7.30
2023-07-04T16:24:56.083Z,6.18
2023-07-04T16:27:24.608Z,5.88
2023-07-04T16:29:53.444Z,7.53
2023-07-04T16:32:27.216Z,8.38
2023-07-04T16:34:57.408Z,8.65
2023-07-04T16:37:30.794Z,7.72
2023-07-04T16:40:05.141Z,6.82
2023-07-04T16:42:34.920Z,8.02
2023-07-04T16:45:26.070Z,8.85
2023-07-04T16:48:23.856Z,6.78
2023-07-04T16:51:08.103Z,10.93
2023-07-04T16:53:56.696Z,8.00
2023-07-04T16:56:28.891Z,10.35
2023-07-04T16:58:58.127Z,9.70
2023-07-04T17:01:26.976Z,7.47
2023-07-04T17:04:03.981Z,8.10
2023-07-04T17:06:41.733Z,8.02
2023-07-04T17:09:18.813Z,5.75
2023-07-04T17:11:49.014Z,6.30
2023-07-04T17:14:18.056Z,9.40
2023-07-04T17:16:46.957Z,6.38
2023-07-04T17:19:17.229Z,13.60
2023-07-04T17:21:47.731Z,8.95
2023-07-04T17:24:19.612Z,6.57
2023-07-04T17:26:58.389Z,9.02
2023-07-04T17:29:28.774Z,9.20
2023-07-04T17:32:30.118Z,6.82
2023-07-04T18:17:20.240Z,6.95
2023-07-04T18:23:38.991Z,11.05
2023-07-04T18:26:09.984Z,7.18
2023-07-04T18:28:44.016Z,10.13
2023-07-04T18:31:16.340Z,6.97
2023-07-04T18:33:48.692Z,8.57
2023-07-04T18:36:29.207Z,8.13
2023-07-04T18:39:09.416Z,7.95
2023-07-04T18:41:42.679Z,9.82
2023-07-04T18:44:13.833Z,13.13
2023-07-04T18:46:47.132Z,6.07
2023-07-04T18:49:25.679Z,8.93
2023-07-04T18:52:02.121Z,9.43
2023-07-04T18:54:32.395Z,10.43
2023-07-04T18:57:04.025Z,7.40
2023-07-04T18:59:32.965Z,7.38
2023-07-04T19:02:02.276Z,6.07
2023-07-04T19:04:35.451Z,7.10
2023-07-04T19:07:15.126Z,7.43
2023-07-04T19:09:55.517Z,7.97
2023-07-04T19:12:29.597Z,5.97
2023-07-04T19:15:26.193Z,9.35
2023-07-04T19:29:33.915Z,8.90
2023-07-04T19:32:27.481Z,7.30
2023-07-04T19:34:56.243Z,13.48
2023-07-04T19:37:25.022Z,9.43
2023-07-04T19:39:53.624Z,8.27
2023-07-04T19:42:22.207Z,9.68
2023-07-04T19:44:52.046Z,10.68
2023-07-04T19:47:21.879Z,8.40
2023-07-04T19:49:50.746Z,8.75
2023-07-04T19:52:19.451Z,11.77
2023-07-04T19:54:48.059Z,9.38
2023-07-04T19:57:16.725Z,12.60
2023-07-04T19:59:45.320Z,12.75
2023-07-04T20:02:15.381Z,10.02
2023-07-04T20:04:47.552Z,10.40
2023-07-04T20:07:16.176Z,13.27
2023-07-04T20:09:47.334Z,10.70
2023-07-04T20:12:16.118Z,10.20
2023-07-04T20:14:45.585Z,10.98
2023-07-04T20:17:15.570Z,13.35
2023-07-04T20:19:44.525Z,12.05
2023-07-04T20:22:13.465Z,11.73
2023-07-04T20:24:42.338Z,12.07
2023-07-04T20:27:11.074Z,16.08
2023-07-04T20:29:39.714Z,12.50
2023-07-04T20:32:10.027Z,14.15
2023-07-04T20:34:39.944Z,21.00
2023-07-04T20:37:08.864Z,23.63
2023-07-04T20:39:40.277Z,34.92
2023-07-04T20:42:10.652Z,34.78
2023-07-04T20:44:39.589Z,32.92
2023-07-04T22:58:52.940Z,51.75
2023-07-04T23:01:23.876Z,50.38
2023-07-04T23:03:52.345Z,51.85
2023-07-04T23:06:21.279Z,50.67
2023-07-04T23:08:50.171Z,52.22
2023-07-04T23:11:20.702Z,53.55
2023-07-04T23:13:49.443Z,53.88
2023-07-04T23:16:21.210Z,53.85
2023-07-04T23:18:51.110Z,50.63
2023-07-04T23:21:23.189Z,51.95
2023-07-04T23:23:52.715Z,51.50
2023-07-04T23:26:24.688Z,51.20
2023-07-04T23:28:53.269Z,51.60
2023-07-04T23:31:23.480Z,52.03
2023-07-04T23:33:52.097Z,50.38
2023-07-04T23:36:21.884Z,48.60
2023-07-04T23:38:51.088Z,47.85
2023-07-04T23:41:19.810Z,49.15
2023-07-04T23:43:48.797Z,47.60
2023-07-04T23:46:17.587Z,48.22
2023-07-04T23:48:49.169Z,49.20
2023-07-04T23:51:23.993Z,47.80
2023-07-04T23:54:07.992Z,47.95
2023-07-04T23:56:37.758Z,47.72
2023-07-04T23:59:07.083Z,48.72
